sensor_id;sensor_type;location;lat;lon;timestamp;P1;durP1;ratioP1;P2;durP2;ratioP2
21299;SDS011;10809;49.476;11.016;2024-03-08T00:00:20;9.83;;;7.00;;
21299;SDS011;10809;49.476;11.016;2024-03-08T00:02:50;10.60;;;6.90;;
21299;SDS011;10809;49.476;11.016;2024-03-08T00:05:20;9.53;;;6.87;;
21299;SDS011;10809;49.476;11.016;2024-03-08T00:07:51;9.33;;;6.70;;
21299;SDS011;10809;49.476;11.016;2024-03-08T00:10:22;7.87;;;6.10;;
21299;SDS011;10809;49.476;11.016;2024-03-08T00:12:52;12.23;;;6.57;;
21299;SDS011;10809;49.476;11.016;2024-03-08T00:15:23;10.97;;;7.10;;
21299;SDS011;10809;49.476;11.016;2024-03-08T00:17:53;10.17;;;6.77;;
21299;SDS011;10809;49.476;11.016;2024-03-08T00:20:24;9.30;;;6.80;;
21299;SDS011;10809;49.476;11.016;2024-03-08T00:22:54;9.67;;;6.87;;
21299;SDS011;10809;49.476;11.016;2024-03-08T00:25:27;12.23;;;6.97;;
21299;SDS011;10809;49.476;11.016;2024-03-08T00:27:58;9.23;;;6.67;;
21299;SDS011;10809;49.476;11.016;2024-03-08T00:30:30;10.07;;;7.27;;
21299;SDS011;10809;49.476;11.016;2024-03-08T00:33:01;9.53;;;6.70;;
21299;SDS011;10809;49.476;11.016;2024-03-08T00:35:31;11.53;;;7.30;;
21299;SDS011;10809;49.476;11.016;2024-03-08T00:38:02;9.63;;;6.53;;
21299;SDS011;10809;49.476;11.016;2024-03-08T00:40:32;10.77;;;7.37;;
21299;SDS011;10809;49.476;11.016;2024-03-08T00:43:03;11.77;;;7.90;;
21299;SDS011;10809;49.476;11.016;2024-03-08T00:45:34;10.07;;;7.17;;
21299;SDS011;10809;49.476;11.016;2024-03-08T00:48:04;11.47;;;7.17;;
21299;SDS011;10809;49.476;11.016;2024-03-08T00:50:35;9.70;;;6.47;;
21299;SDS011;10809;49.476;11.016;2024-03-08T00:53:06;11.47;;;7.20;;
21299;SDS011;10809;49.476;11.016;2024-03-08T00:55:37;9.97;;;6.70;;
21299;SDS011;10809;49.476;11.016;2024-03-08T00:58:08;11.00;;;7.33;;
21299;SDS011;10809;49.476;11.016;2024-03-08T01:00:39;10.33;;;6.70;;
21299;SDS011;10809;49.476;11.016;2024-03-08T01:03:16;10.73;;;7.07;;
21299;SDS011;10809;49.476;11.016;2024-03-08T01:05:46;12.10;;;7.67;;
21299;SDS011;10809;49.476;11.016;2024-03-08T01:08:17;11.10;;;6.67;;
21299;SDS011;10809;49.476;11.016;2024-03-08T01:10:47;11.40;;;7.37;;
21299;SDS011;10809;49.476;11.016;2024-03-08T01:13:17;10.87;;;7.47;;
21299;SDS011;10809;49.476;11.016;2024-03-08T01:15:49;11.23;;;7.20;;
21299;SDS011;10809;49.476;11.016;2024-03-08T01:18:19;9.93;;;6.90;;
21299;SDS011;10809;49.476;11.016;2024-03-08T01:20:50;11.70;;;7.97;;
21299;SDS011;10809;49.476;11.016;2024-03-08T01:23:20;9.00;;;7.00;;
21299;SDS011;10809;49.476;11.016;2024-03-08T01:25:51;11.23;;;7.57;;
21299;SDS011;10809;49.476;11.016;2024-03-08T01:28:26;9.33;;;7.00;;
21299;SDS011;10809;49.476;11.016;2024-03-08T01:30:57;10.90;;;7.27;;
21299;SDS011;10809;49.476;11.016;2024-03-08T01:33:30;10.33;;;7.50;;
21299;SDS011;10809;49.476;11.016;2024-03-08T01:36:01;10.50;;;7.10;;
21299;SDS011;10809;49.476;11.016;2024-03-08T01:38:32;11.90;;;7.80;;
21299;SDS011;10809;49.476;11.016;2024-03-08T01:41:03;9.53;;;7.07;;
21299;SDS011;10809;49.476;11.016;2024-03-08T01:43:34;11.53;;;6.80;;
21299;SDS011;10809;49.476;11.016;2024-03-08T01:46:04;9.87;;;7.13;;
21299;SDS011;10809;49.476;11.016;2024-03-08T01:48:37;10.10;;;7.00;;
21299;SDS011;10809;49.476;11.016;2024-03-08T01:51:07;11.43;;;7.30;;
21299;SDS011;10809;49.476;11.016;2024-03-08T01:53:38;10.77;;;7.20;;
21299;SDS011;10809;49.476;11.016;2024-03-08T01:56:10;9.30;;;6.33;;
21299;SDS011;10809;49.476;11.016;2024-03-08T01:58:43;10.57;;;6.67;;
21299;SDS011;10809;49.476;11.016;2024-03-08T02:01:14;17.60;;;6.73;;
21299;SDS011;10809;49.476;11.016;2024-03-08T02:03:45;10.00;;;6.40;;
21299;SDS011;10809;49.476;11.016;2024-03-08T02:06:16;9.20;;;7.10;;
21299;SDS011;10809;49.476;11.016;2024-03-08T02:08:47;11.53;;;7.03;;
21299;SDS011;10809;49.476;11.016;2024-03-08T02:11:17;8.67;;;6.73;;
21299;SDS011;10809;49.476;11.016;2024-03-08T02:13:50;9.90;;;6.23;;
21299;SDS011;10809;49.476;11.016;2024-03-08T02:16:21;10.70;;;6.60;;
21299;SDS011;10809;49.476;11.016;2024-03-08T02:18:52;8.93;;;6.63;;
21299;SDS011;10809;49.476;11.016;2024-03-08T02:21:23;10.77;;;6.77;;
21299;SDS011;10809;49.476;11.016;2024-03-08T02:23:54;10.40;;;6.43;;
21299;SDS011;10809;49.476;11.016;2024-03-08T02:26:25;10.30;;;7.07;;
21299;SDS011;10809;49.476;11.016;2024-03-08T02:28:55;9.43;;;7.03;;
21299;SDS011;10809;49.476;11.016;2024-03-08T02:31:26;8.90;;;6.17;;
21299;SDS011;10809;49.476;11.016;2024-03-08T02:33:59;9.77;;;6.90;;
21299;SDS011;10809;49.476;11.016;2024-03-08T02:36:30;10.67;;;7.37;;
21299;SDS011;10809;49.476;11.016;2024-03-08T02:39:03;9.87;;;6.73;;
21299;SDS011;10809;49.476;11.016;2024-03-08T02:41:39;10.63;;;7.50;;
21299;SDS011;10809;49.476;11.016;2024-03-08T02:44:09;9.17;;;6.97;;
21299;SDS011;10809;49.476;11.016;2024-03-08T02:46:40;9.70;;;6.90;;
21299;SDS011;10809;49.476;11.016;2024-03-08T02:49:10;10.23;;;7.13;;
21299;SDS011;10809;49.476;11.016;2024-03-08T02:51:41;10.00;;;7.17;;
21299;SDS011;10809;49.476;11.016;2024-03-08T02:54:15;12.93;;;7.50;;
21299;SDS011;10809;49.476;11.016;2024-03-08T02:56:47;10.47;;;6.77;;
21299;SDS011;10809;49.476;11.016;2024-03-08T02:59:20;9.80;;;7.07;;
21299;SDS011;10809;49.476;11.016;2024-03-08T03:01:50;12.63;;;7.27;;
21299;SDS011;10809;49.476;11.016;2024-03-08T03:04:21;11.13;;;7.43;;
21299;SDS011;10809;49.476;11.016;2024-03-08T03:06:51;10.17;;;6.70;;
21299;SDS011;10809;49.476;11.016;2024-03-08T03:09:21;9.23;;;6.13;;
21299;SDS011;10809;49.476;11.016;2024-03-08T03:11:57;11.53;;;6.80;;
21299;SDS011;10809;49.476;11.016;2024-03-08T03:14:31;9.70;;;7.33;;
21299;SDS011;10809;49.476;11.016;2024-03-08T03:17:01;10.47;;;7.10;;
21299;SDS011;10809;49.476;11.016;2024-03-08T03:19:32;11.43;;;7.30;;
21299;SDS011;10809;49.476;11.016;2024-03-08T03:22:03;9.10;;;6.70;;
21299;SDS011;10809;49.476;11.016;2024-03-08T03:24:38;10.10;;;6.93;;
21299;SDS011;10809;49.476;11.016;2024-03-08T03:27:09;11.10;;;7.30;;
21299;SDS011;10809;49.476;11.016;2024-03-08T03:29:42;10.03;;;6.67;;
21299;SDS011;10809;49.476;11.016;2024-03-08T03:32:17;11.10;;;7.10;;
21299;SDS011;10809;49.476;11.016;2024-03-08T03:34:48;11.20;;;6.90;;
21299;SDS011;10809;49.476;11.016;2024-03-08T03:37:22;11.67;;;7.60;;
21299;SDS011;10809;49.476;11.016;2024-03-08T03:39:53;10.40;;;7.23;;
21299;SDS011;10809;49.476;11.016;2024-03-08T03:42:23;9.37;;;6.83;;
21299;SDS011;10809;49.476;11.016;2024-03-08T03:44:54;9.73;;;6.97;;
21299;SDS011;10809;49.476;11.016;2024-03-08T03:47:25;10.30;;;7.13;;
21299;SDS011;10809;49.476;11.016;2024-03-08T03:49:57;8.90;;;6.73;;
21299;SDS011;10809;49.476;11.016;2024-03-08T03:52:32;8.20;;;6.37;;
21299;SDS011;10809;49.476;11.016;2024-03-08T03:55:02;10.63;;;7.13;;
21299;SDS011;10809;49.476;11.016;2024-03-08T03:57:34;9.73;;;6.30;;
21299;SDS011;10809;49.476;11.016;2024-03-08T04:00:06;9.60;;;6.83;;
21299;SDS011;10809;49.476;11.016;2024-03-08T04:02:43;11.30;;;7.23;;
21299;SDS011;10809;49.476;11.016;2024-03-08T04:05:14;9.77;;;6.63;;
21299;SDS011;10809;49.476;11.016;2024-03-08T04:07:45;10.33;;;7.00;;
21299;SDS011;10809;49.476;11.016;2024-03-08T04:10:15;7.67;;;6.10;;
21299;SDS011;10809;49.476;11.016;2024-03-08T04:12:46;9.00;;;6.80;;
21299;SDS011;10809;49.476;11.016;2024-03-08T04:15:17;10.10;;;6.90;;
21299;SDS011;10809;49.476;11.016;2024-03-08T04:17:51;13.47;;;7.23;;
21299;SDS011;10809;49.476;11.016;2024-03-08T04:20:22;10.43;;;7.63;;
21299;SDS011;10809;49.476;11.016;2024-03-08T04:22:59;10.40;;;6.77;;
21299;SDS011;10809;49.476;11.016;2024-03-08T04:25:29;12.10;;;6.77;;
21299;SDS011;10809;49.476;11.016;2024-03-08T04:28:01;11.50;;;7.10;;
21299;SDS011;10809;49.476;11.016;2024-03-08T04:30:31;13.07;;;7.50;;
21299;SDS011;10809;49.476;11.016;2024-03-08T04:33:01;11.33;;;8.20;;
21299;SDS011;10809;49.476;11.016;2024-03-08T04:35:33;11.70;;;7.53;;
21299;SDS011;10809;49.476;11.016;2024-03-08T04:38:04;10.93;;;7.67;;
21299;SDS011;10809;49.476;11.016;2024-03-08T04:40:35;11.83;;;7.83;;
21299;SDS011;10809;49.476;11.016;2024-03-08T04:43:06;12.23;;;8.10;;
21299;SDS011;10809;49.476;11.016;2024-03-08T04:45:38;13.20;;;7.60;;
21299;SDS011;10809;49.476;11.016;2024-03-08T04:48:09;12.13;;;8.10;;
21299;SDS011;10809;49.476;11.016;2024-03-08T04:50:40;9.60;;;7.40;;
21299;SDS011;10809;49.476;11.016;2024-03-08T04:53:10;12.67;;;7.33;;
21299;SDS011;10809;49.476;11.016;2024-03-08T04:55:40;10.30;;;7.23;;
21299;SDS011;10809;49.476;11.016;2024-03-08T04:58:11;9.80;;;7.00;;
21299;SDS011;10809;49.476;11.016;2024-03-08T05:00:41;9.37;;;7.17;;
21299;SDS011;10809;49.476;11.016;2024-03-08T05:03:12;12.53;;;7.67;;
21299;SDS011;10809;49.476;11.016;2024-03-08T05:05:42;10.30;;;7.73;;
21299;SDS011;10809;49.476;11.016;2024-03-08T05:08:12;14.93;;;9.93;;
21299;SDS011;10809;49.476;11.016;2024-03-08T05:10:43;14.43;;;11.10;;
21299;SDS011;10809;49.476;11.016;2024-03-08T05:13:13;14.87;;;9.37;;
21299;SDS011;10809;49.476;11.016;2024-03-08T05:15:44;13.80;;;9.30;;
21299;SDS011;10809;49.476;11.016;2024-03-08T05:18:17;14.33;;;8.60;;
21299;SDS011;10809;49.476;11.016;2024-03-08T05:20:48;12.37;;;8.83;;
21299;SDS011;10809;49.476;11.016;2024-03-08T05:23:18;11.10;;;8.13;;
21299;SDS011;10809;49.476;11.016;2024-03-08T05:25:49;12.93;;;8.60;;
21299;SDS011;10809;49.476;11.016;2024-03-08T05:28:20;13.57;;;8.27;;
21299;SDS011;10809;49.476;11.016;2024-03-08T05:30:50;11.80;;;8.40;;
21299;SDS011;10809;49.476;11.016;2024-03-08T05:33:24;12.57;;;8.83;;
21299;SDS011;10809;49.476;11.016;2024-03-08T05:35:55;14.83;;;8.23;;
21299;SDS011;10809;49.476;11.016;2024-03-08T05:38:26;11.77;;;8.23;;
21299;SDS011;10809;49.476;11.016;2024-03-08T05:40:56;14.23;;;10.00;;
21299;SDS011;10809;49.476;11.016;2024-03-08T05:43:30;13.70;;;9.43;;
21299;SDS011;10809;49.476;11.016;2024-03-08T05:46:00;14.07;;;9.03;;
21299;SDS011;10809;49.476;11.016;2024-03-08T05:48:31;14.50;;;8.80;;
21299;SDS011;10809;49.476;11.016;2024-03-08T05:51:04;15.23;;;8.47;;
21299;SDS011;10809;49.476;11.016;2024-03-08T05:53:35;12.80;;;7.10;;
21299;SDS011;10809;49.476;11.016;2024-03-08T05:56:05;12.40;;;8.23;;
21299;SDS011;10809;49.476;11.016;2024-03-08T05:58:42;13.07;;;8.80;;
21299;SDS011;10809;49.476;11.016;2024-03-08T06:01:13;11.63;;;8.30;;
21299;SDS011;10809;49.476;11.016;2024-03-08T06:03:44;15.60;;;8.73;;
21299;SDS011;10809;49.476;11.016;2024-03-08T06:06:15;12.83;;;8.37;;
21299;SDS011;10809;49.476;11.016;2024-03-08T06:08:46;12.57;;;8.20;;
21299;SDS011;10809;49.476;11.016;2024-03-08T06:11:19;13.03;;;8.87;;
21299;SDS011;10809;49.476;11.016;2024-03-08T06:13:50;14.37;;;9.73;;
21299;SDS011;10809;49.476;11.016;2024-03-08T06:16:21;12.30;;;8.80;;
21299;SDS011;10809;49.476;11.016;2024-03-08T06:18:51;11.53;;;8.57;;
21299;SDS011;10809;49.476;11.016;2024-03-08T06:21:21;13.23;;;8.83;;
21299;SDS011;10809;49.476;11.016;2024-03-08T06:23:58;14.40;;;8.60;;
21299;SDS011;10809;49.476;11.016;2024-03-08T06:26:29;12.87;;;9.00;;
21299;SDS011;10809;49.476;11.016;2024-03-08T06:29:00;12.37;;;9.13;;
21299;SDS011;10809;49.476;11.016;2024-03-08T06:31:30;12.07;;;8.70;;
21299;SDS011;10809;49.476;11.016;2024-03-08T06:34:00;14.27;;;9.87;;
21299;SDS011;10809;49.476;11.016;2024-03-08T06:36:31;16.50;;;9.83;;
21299;SDS011;10809;49.476;11.016;2024-03-08T06:39:02;14.70;;;9.63;;
21299;SDS011;10809;49.476;11.016;2024-03-08T06:41:39;14.80;;;9.63;;
21299;SDS011;10809;49.476;11.016;2024-03-08T06:44:09;14.40;;;10.27;;
21299;SDS011;10809;49.476;11.016;2024-03-08T06:46:43;14.17;;;8.83;;
21299;SDS011;10809;49.476;11.016;2024-03-08T06:49:14;14.53;;;9.57;;
21299;SDS011;10809;49.476;11.016;2024-03-08T06:51:45;11.20;;;8.20;;
21299;SDS011;10809;49.476;11.016;2024-03-08T06:54:16;15.93;;;9.97;;
21299;SDS011;10809;49.476;11.016;2024-03-08T06:56:46;13.60;;;9.57;;
21299;SDS011;10809;49.476;11.016;2024-03-08T06:59:26;11.20;;;8.27;;
21299;SDS011;10809;49.476;11.016;2024-03-08T07:01:56;13.37;;;8.83;;
21299;SDS011;10809;49.476;11.016;2024-03-08T07:04:26;13.43;;;9.33;;
21299;SDS011;10809;49.476;11.016;2024-03-08T07:06:59;13.17;;;8.33;;
21299;SDS011;10809;49.476;11.016;2024-03-08T07:09:32;15.40;;;8.80;;
21299;SDS011;10809;49.476;11.016;2024-03-08T07:12:03;16.03;;;9.53;;
21299;SDS011;10809;49.476;11.016;2024-03-08T07:14:34;12.63;;;8.97;;
21299;SDS011;10809;49.476;11.016;2024-03-08T07:17:09;11.93;;;8.67;;
21299;SDS011;10809;49.476;11.016;2024-03-08T07:19:40;13.40;;;9.27;;
21299;SDS011;10809;49.476;11.016;2024-03-08T07:22:10;14.43;;;9.10;;
21299;SDS011;10809;49.476;11.016;2024-03-08T07:24:41;16.40;;;9.40;;
21299;SDS011;10809;49.476;11.016;2024-03-08T07:27:50;13.07;;;8.87;;
21299;SDS011;10809;49.476;11.016;2024-03-08T07:30:24;17.50;;;11.63;;
21299;SDS011;10809;49.476;11.016;2024-03-08T07:33:23;16.93;;;10.83;;
21299;SDS011;10809;49.476;11.016;2024-03-08T07:35:54;15.57;;;9.80;;
21299;SDS011;10809;49.476;11.016;2024-03-08T07:38:24;12.63;;;9.07;;
21299;SDS011;10809;49.476;11.016;2024-03-08T07:40:54;13.87;;;9.43;;
21299;SDS011;10809;49.476;11.016;2024-03-08T07:43:27;15.27;;;9.93;;
21299;SDS011;10809;49.476;11.016;2024-03-08T07:45:57;16.17;;;10.17;;
21299;SDS011;10809;49.476;11.016;2024-03-08T07:48:31;11.83;;;8.63;;
21299;SDS011;10809;49.476;11.016;2024-03-08T07:51:01;10.97;;;8.20;;
21299;SDS011;10809;49.476;11.016;2024-03-08T07:53:33;10.93;;;8.50;;
21299;SDS011;10809;49.476;11.016;2024-03-08T07:56:04;14.27;;;9.63;;
21299;SDS011;10809;49.476;11.016;2024-03-08T07:58:45;12.77;;;8.90;;
21299;SDS011;10809;49.476;11.016;2024-03-08T08:01:25;14.07;;;9.10;;
21299;SDS011;10809;49.476;11.016;2024-03-08T08:03:55;11.93;;;8.57;;
21299;SDS011;10809;49.476;11.016;2024-03-08T08:06:27;12.70;;;8.37;;
21299;SDS011;10809;49.476;11.016;2024-03-08T08:08:57;10.67;;;7.67;;
21299;SDS011;10809;49.476;11.016;2024-03-08T08:11:28;11.80;;;7.67;;
21299;SDS011;10809;49.476;11.016;2024-03-08T08:13:59;9.90;;;8.00;;
21299;SDS011;10809;49.476;11.016;2024-03-08T08:16:29;11.47;;;7.73;;
21299;SDS011;10809;49.476;11.016;2024-03-08T08:19:00;13.20;;;8.43;;
21299;SDS011;10809;49.476;11.016;2024-03-08T08:21:30;12.37;;;8.40;;
21299;SDS011;10809;49.476;11.016;2024-03-08T08:24:01;12.20;;;8.63;;
21299;SDS011;10809;49.476;11.016;2024-03-08T08:26:33;12.33;;;8.60;;
21299;SDS011;10809;49.476;11.016;2024-03-08T08:29:04;11.23;;;8.60;;
21299;SDS011;10809;49.476;11.016;2024-03-08T08:31:36;10.63;;;7.40;;
21299;SDS011;10809;49.476;11.016;2024-03-08T08:34:08;11.90;;;8.63;;
21299;SDS011;10809;49.476;11.016;2024-03-08T08:36:39;9.67;;;7.53;;
21299;SDS011;10809;49.476;11.016;2024-03-08T08:39:10;10.93;;;8.47;;
21299;SDS011;10809;49.476;11.016;2024-03-08T08:41:43;11.83;;;8.60;;
21299;SDS011;10809;49.476;11.016;2024-03-08T08:44:14;12.43;;;8.23;;
21299;SDS011;10809;49.476;11.016;2024-03-08T08:46:45;12.13;;;8.40;;
21299;SDS011;10809;49.476;11.016;2024-03-08T08:49:15;10.90;;;8.20;;
21299;SDS011;10809;49.476;11.016;2024-03-08T08:51:50;12.57;;;8.10;;
21299;SDS011;10809;49.476;11.016;2024-03-08T08:54:20;11.57;;;7.47;;
21299;SDS011;10809;49.476;11.016;2024-03-08T08:56:52;12.53;;;8.20;;
21299;SDS011;10809;49.476;11.016;2024-03-08T08:59:23;10.90;;;7.27;;
21299;SDS011;10809;49.476;11.016;2024-03-08T09:01:55;11.27;;;6.93;;
21299;SDS011;10809;49.476;11.016;2024-03-08T09:04:25;9.37;;;6.60;;
21299;SDS011;10809;49.476;11.016;2024-03-08T09:06:56;9.53;;;7.17;;
21299;SDS011;10809;49.476;11.016;2024-03-08T09:09:27;11.10;;;7.87;;
21299;SDS011;10809;49.476;11.016;2024-03-08T09:11:57;10.23;;;6.93;;
21299;SDS011;10809;49.476;11.016;2024-03-08T09:14:28;11.03;;;7.33;;
21299;SDS011;10809;49.476;11.016;2024-03-08T09:16:58;11.17;;;7.27;;
21299;SDS011;10809;49.476;11.016;2024-03-08T09:19:28;9.20;;;7.00;;
21299;SDS011;10809;49.476;11.016;2024-03-08T09:21:59;13.53;;;8.23;;
21299;SDS011;10809;49.476;11.016;2024-03-08T09:24:29;10.13;;;7.40;;
21299;SDS011;10809;49.476;11.016;2024-03-08T09:27:01;11.67;;;7.57;;
21299;SDS011;10809;49.476;11.016;2024-03-08T09:29:31;9.70;;;7.47;;
21299;SDS011;10809;49.476;11.016;2024-03-08T09:32:01;12.43;;;7.03;;
21299;SDS011;10809;49.476;11.016;2024-03-08T09:34:32;10.63;;;6.90;;
21299;SDS011;10809;49.476;11.016;2024-03-08T09:37:03;13.93;;;8.23;;
21299;SDS011;10809;49.476;11.016;2024-03-08T09:39:34;9.77;;;6.80;;
21299;SDS011;10809;49.476;11.016;2024-03-08T09:42:05;10.23;;;7.57;;
21299;SDS011;10809;49.476;11.016;2024-03-08T09:44:36;10.10;;;7.17;;
21299;SDS011;10809;49.476;11.016;2024-03-08T09:47:06;9.63;;;6.33;;
21299;SDS011;10809;49.476;11.016;2024-03-08T09:49:40;11.60;;;7.17;;
21299;SDS011;10809;49.476;11.016;2024-03-08T09:52:11;10.37;;;6.83;;
21299;SDS011;10809;49.476;11.016;2024-03-08T09:54:42;11.90;;;7.33;;
21299;SDS011;10809;49.476;11.016;2024-03-08T09:57:14;8.07;;;6.17;;
21299;SDS011;10809;49.476;11.016;2024-03-08T09:59:45;7.67;;;5.63;;
21299;SDS011;10809;49.476;11.016;2024-03-08T10:02:18;10.57;;;7.63;;
21299;SDS011;10809;49.476;11.016;2024-03-08T10:04:48;9.53;;;6.87;;
21299;SDS011;10809;49.476;11.016;2024-03-08T10:07:19;11.87;;;7.47;;
21299;SDS011;10809;49.476;11.016;2024-03-08T10:09:51;7.43;;;6.43;;
21299;SDS011;10809;49.476;11.016;2024-03-08T10:12:23;9.60;;;6.93;;
21299;SDS011;10809;49.476;11.016;2024-03-08T10:15:00;9.87;;;6.27;;
21299;SDS011;10809;49.476;11.016;2024-03-08T10:17:31;11.03;;;6.30;;
21299;SDS011;10809;49.476;11.016;2024-03-08T10:20:02;7.83;;;5.73;;
21299;SDS011;10809;49.476;11.016;2024-03-08T10:22:34;7.10;;;5.40;;
21299;SDS011;10809;49.476;11.016;2024-03-08T10:25:05;7.87;;;5.33;;
21299;SDS011;10809;49.476;11.016;2024-03-08T10:27:38;8.53;;;6.20;;
21299;SDS011;10809;49.476;11.016;2024-03-08T10:30:15;10.17;;;5.30;;
21299;SDS011;10809;49.476;11.016;2024-03-08T10:32:49;9.37;;;6.20;;
21299;SDS011;10809;49.476;11.016;2024-03-08T10:35:21;8.30;;;5.80;;
21299;SDS011;10809;49.476;11.016;2024-03-08T10:37:52;8.20;;;5.37;;
21299;SDS011;10809;49.476;11.016;2024-03-08T10:40:28;8.23;;;5.70;;
21299;SDS011;10809;49.476;11.016;2024-03-08T10:43:00;7.90;;;5.80;;
21299;SDS011;10809;49.476;11.016;2024-03-08T10:45:31;8.97;;;6.33;;
21299;SDS011;10809;49.476;11.016;2024-03-08T10:51:07;6.80;;;5.00;;
21299;SDS011;10809;49.476;11.016;2024-03-08T10:53:41;10.47;;;5.67;;
21299;SDS011;10809;49.476;11.016;2024-03-08T10:56:14;9.33;;;5.63;;
21299;SDS011;10809;49.476;11.016;2024-03-08T10:58:48;7.43;;;5.60;;
21299;SDS011;10809;49.476;11.016;2024-03-08T11:01:20;8.23;;;5.97;;
21299;SDS011;10809;49.476;11.016;2024-03-08T11:03:51;8.00;;;5.90;;
21299;SDS011;10809;49.476;11.016;2024-03-08T11:06:56;7.20;;;5.43;;
21299;SDS011;10809;49.476;11.016;2024-03-08T11:09:33;7.50;;;5.90;;
21299;SDS011;10809;49.476;11.016;2024-03-08T11:12:18;7.30;;;4.90;;
21299;SDS011;10809;49.476;11.016;2024-03-08T11:14:51;7.27;;;4.57;;
21299;SDS011;10809;49.476;11.016;2024-03-08T11:20:11;6.47;;;5.07;;
21299;SDS011;10809;49.476;11.016;2024-03-08T11:22:55;6.10;;;4.23;;
21299;SDS011;10809;49.476;11.016;2024-03-08T11:31:21;5.63;;;4.30;;
21299;SDS011;10809;49.476;11.016;2024-03-08T11:33:39;6.90;;;4.97;;
21299;SDS011;10809;49.476;11.016;2024-03-08T11:36:20;6.40;;;4.53;;
21299;SDS011;10809;49.476;11.016;2024-03-08T11:38:56;5.87;;;4.23;;
21299;SDS011;10809;49.476;11.016;2024-03-08T11:41:27;6.67;;;4.70;;
21299;SDS011;10809;49.476;11.016;2024-03-08T11:44:03;5.93;;;3.93;;
21299;SDS011;10809;49.476;11.016;2024-03-08T11:46:38;4.77;;;3.53;;
21299;SDS011;10809;49.476;11.016;2024-03-08T11:49:14;5.83;;;4.03;;
21299;SDS011;10809;49.476;11.016;2024-03-08T11:51:53;5.57;;;3.70;;
21299;SDS011;10809;49.476;11.016;2024-03-08T11:54:24;5.23;;;3.90;;
21299;SDS011;10809;49.476;11.016;2024-03-08T11:56:54;5.90;;;4.13;;
21299;SDS011;10809;49.476;11.016;2024-03-08T11:59:29;4.33;;;3.27;;
21299;SDS011;10809;49.476;11.016;2024-03-08T12:02:01;3.83;;;3.00;;
21299;SDS011;10809;49.476;11.016;2024-03-08T12:04:43;5.70;;;4.20;;
21299;SDS011;10809;49.476;11.016;2024-03-08T12:07:16;4.93;;;4.03;;
21299;SDS011;10809;49.476;11.016;2024-03-08T12:12:52;4.90;;;3.83;;
21299;SDS011;10809;49.476;11.016;2024-03-08T12:15:23;5.20;;;3.90;;
21299;SDS011;10809;49.476;11.016;2024-03-08T12:17:55;6.17;;;3.97;;
21299;SDS011;10809;49.476;11.016;2024-03-08T12:20:26;4.97;;;3.63;;
21299;SDS011;10809;49.476;11.016;2024-03-08T12:23:02;4.67;;;3.63;;
21299;SDS011;10809;49.476;11.016;2024-03-08T12:25:35;5.80;;;4.17;;
21299;SDS011;10809;49.476;11.016;2024-03-08T12:28:15;5.77;;;4.43;;
21299;SDS011;10809;49.476;11.016;2024-03-08T12:30:46;6.33;;;4.30;;
21299;SDS011;10809;49.476;11.016;2024-03-08T12:33:26;5.03;;;4.23;;
21299;SDS011;10809;49.476;11.016;2024-03-08T12:35:57;5.17;;;3.93;;
21299;SDS011;10809;49.476;11.016;2024-03-08T12:38:28;4.10;;;3.40;;
21299;SDS011;10809;49.476;11.016;2024-03-08T12:41:01;4.37;;;3.27;;
21299;SDS011;10809;49.476;11.016;2024-03-08T12:43:32;6.27;;;4.27;;
21299;SDS011;10809;49.476;11.016;2024-03-08T12:46:04;6.10;;;4.43;;
21299;SDS011;10809;49.476;11.016;2024-03-08T12:48:39;4.40;;;3.97;;
21299;SDS011;10809;49.476;11.016;2024-03-08T12:51:10;5.73;;;4.00;;
21299;SDS011;10809;49.476;11.016;2024-03-08T12:53:44;6.27;;;3.27;;
21299;SDS011;10809;49.476;11.016;2024-03-08T12:56:32;5.63;;;4.30;;
21299;SDS011;10809;49.476;11.016;2024-03-08T12:59:10;8.10;;;3.87;;
21299;SDS011;10809;49.476;11.016;2024-03-08T13:01:46;6.07;;;4.07;;
21299;SDS011;10809;49.476;11.016;2024-03-08T13:04:17;7.57;;;4.40;;
21299;SDS011;10809;49.476;11.016;2024-03-08T13:06:49;3.90;;;3.23;;
21299;SDS011;10809;49.476;11.016;2024-03-08T13:09:20;5.47;;;3.70;;
21299;SDS011;10809;49.476;11.016;2024-03-08T13:11:50;3.80;;;2.87;;
21299;SDS011;10809;49.476;11.016;2024-03-08T13:14:21;4.70;;;3.67;;
21299;SDS011;10809;49.476;11.016;2024-03-08T13:16:52;4.63;;;3.37;;
21299;SDS011;10809;49.476;11.016;2024-03-08T13:19:22;4.90;;;3.40;;
21299;SDS011;10809;49.476;11.016;2024-03-08T13:21:53;5.73;;;3.73;;
21299;SDS011;10809;49.476;11.016;2024-03-08T13:24:30;4.73;;;3.63;;
21299;SDS011;10809;49.476;11.016;2024-03-08T13:27:03;4.67;;;3.63;;
21299;SDS011;10809;49.476;11.016;2024-03-08T13:29:47;4.10;;;3.37;;
21299;SDS011;10809;49.476;11.016;2024-03-08T13:32:24;5.40;;;3.33;;
21299;SDS011;10809;49.476;11.016;2024-03-08T13:34:56;7.40;;;3.90;;
21299;SDS011;10809;49.476;11.016;2024-03-08T13:37:27;4.40;;;3.33;;
21299;SDS011;10809;49.476;11.016;2024-03-08T13:39:57;4.30;;;3.10;;
21299;SDS011;10809;49.476;11.016;2024-03-08T13:42:28;3.50;;;3.10;;
21299;SDS011;10809;49.476;11.016;2024-03-08T13:44:58;8.07;;;5.47;;
21299;SDS011;10809;49.476;11.016;2024-03-08T13:47:28;6.63;;;4.73;;
21299;SDS011;10809;49.476;11.016;2024-03-08T13:50:00;8.00;;;5.53;;
21299;SDS011;10809;49.476;11.016;2024-03-08T13:52:30;6.70;;;5.17;;
21299;SDS011;10809;49.476;11.016;2024-03-08T13:55:01;6.33;;;4.73;;
21299;SDS011;10809;49.476;11.016;2024-03-08T13:57:35;5.93;;;4.33;;
21299;SDS011;10809;49.476;11.016;2024-03-08T14:00:05;6.83;;;4.40;;
21299;SDS011;10809;49.476;11.016;2024-03-08T14:02:43;5.20;;;4.03;;
21299;SDS011;10809;49.476;11.016;2024-03-08T14:05:17;5.43;;;4.40;;
21299;SDS011;10809;49.476;11.016;2024-03-08T14:07:49;6.93;;;4.37;;
21299;SDS011;10809;49.476;11.016;2024-03-08T14:10:20;4.93;;;3.65;;
21299;SDS011;10809;49.476;11.016;2024-03-08T14:12:52;5.38;;;4.25;;
21299;SDS011;10809;49.476;11.016;2024-03-08T14:15:26;7.25;;;5.18;;
21299;SDS011;10809;49.476;11.016;2024-03-08T14:17:56;6.65;;;4.57;;
21299;SDS011;10809;49.476;11.016;2024-03-08T14:20:27;5.28;;;4.00;;
21299;SDS011;10809;49.476;11.016;2024-03-08T14:22:58;4.53;;;3.92;;
21299;SDS011;10809;49.476;11.016;2024-03-08T14:25:29;5.72;;;4.50;;
21299;SDS011;10809;49.476;11.016;2024-03-08T14:28:00;6.50;;;4.80;;
21299;SDS011;10809;49.476;11.016;2024-03-08T14:30:34;5.13;;;4.37;;
21299;SDS011;10809;49.476;11.016;2024-03-08T14:33:05;6.03;;;4.43;;
21299;SDS011;10809;49.476;11.016;2024-03-08T14:35:36;5.67;;;4.27;;
21299;SDS011;10809;49.476;11.016;2024-03-08T14:38:07;7.37;;;4.40;;
21299;SDS011;10809;49.476;11.016;2024-03-08T14:40:38;6.33;;;4.33;;
21299;SDS011;10809;49.476;11.016;2024-03-08T14:43:09;6.63;;;3.93;;
21299;SDS011;10809;49.476;11.016;2024-03-08T14:45:40;4.93;;;3.90;;
21299;SDS011;10809;49.476;11.016;2024-03-08T14:48:11;6.23;;;4.60;;
21299;SDS011;10809;49.476;11.016;2024-03-08T14:50:42;5.40;;;4.10;;
21299;SDS011;10809;49.476;11.016;2024-03-08T14:53:16;5.17;;;4.10;;
21299;SDS011;10809;49.476;11.016;2024-03-08T14:55:48;7.10;;;4.27;;
21299;SDS011;10809;49.476;11.016;2024-03-08T14:58:19;5.43;;;4.50;;
21299;SDS011;10809;49.476;11.016;2024-03-08T15:00:51;5.90;;;4.07;;
21299;SDS011;10809;49.476;11.016;2024-03-08T15:03:25;5.63;;;4.90;;
21299;SDS011;10809;49.476;11.016;2024-03-08T15:05:56;5.23;;;4.47;;
21299;SDS011;10809;49.476;11.016;2024-03-08T15:08:27;4.93;;;3.77;;
21299;SDS011;10809;49.476;11.016;2024-03-08T15:10:57;5.73;;;4.20;;